createdAt,value
2019-01-28T00:01:02.737Z,98092.56
2019-01-28T00:02:07.145Z,98097.08
2019-01-28T00:03:11.427Z,98097.81
2019-01-28T00:04:15.985Z,98098.30
2019-01-28T00:05:19.949Z,98095.34
2019-01-28T00:06:24.338Z,98094.09
2019-01-28T00:07:28.947Z,98102.65
2019-01-28T00:08:33.301Z,98103.91
2019-01-28T00:09:37.916Z,98102.17
2019-01-28T00:10:42.292Z,98107.36
2019-01-28T00:11:46.535Z,98111.41
2019-01-28T00:12:50.866Z,98112.91
2019-01-28T00:13:55.152Z,98111.95
2019-01-28T00:14:59.483Z,98110.89
2019-01-28T00:16:03.867Z,98107.49
2019-01-28T00:17:08.152Z,98113.75
2019-01-28T00:18:12.330Z,98110.09
2019-01-28T00:19:16.795Z,98112.30
2019-01-28T00:20:21.038Z,98106.34
2019-01-28T00:21:25.035Z,98108.55
2019-01-28T00:22:29.333Z,98116.63
2019-01-28T00:23:33.754Z,98113.07
2019-01-28T00:24:37.787Z,98110.95
2019-01-28T00:25:41.839Z,98114.03
2019-01-28T00:26:45.843Z,98108.27
2019-01-28T00:27:50.158Z,98118.94
2019-01-28T00:28:54.067Z,98113.94
2019-01-28T00:29:58.356Z,98114.52
2019-01-28T00:31:02.958Z,98117.30
2019-01-28T00:32:06.942Z,98113.75
2019-01-28T00:33:11.265Z,98116.44
2019-01-28T00:34:15.249Z,98115.09
2019-01-28T00:35:19.595Z,98115.09
2019-01-28T00:36:24.292Z,98108.36
2019-01-28T00:37:28.596Z,98112.98
2019-01-28T00:38:32.805Z,98115.67
2019-01-28T00:39:37.013Z,98117.97
2019-01-28T00:40:41.316Z,98111.76
2019-01-28T00:41:45.678Z,98120.31
2019-01-28T00:42:49.931Z,98115.89
2019-01-28T00:43:54.342Z,98122.88
2019-01-28T00:44:58.428Z,98120.19
2019-01-28T00:46:02.583Z,98117.97
2019-01-28T00:47:06.570Z,98118.27
2019-01-28T00:48:10.715Z,98120.67
2019-01-28T00:49:14.949Z,98128.27
2019-01-28T00:50:18.920Z,98127.40
2019-01-28T00:51:23.137Z,98127.53
2019-01-28T00:52:27.369Z,98125.09
2019-01-28T00:53:31.599Z,98137.05
2019-01-28T00:54:35.835Z,98131.95
2019-01-28T00:55:40.320Z,98133.30
2019-01-28T00:56:44.570Z,98130.22
2019-01-28T00:57:49.036Z,98138.10
2019-01-28T00:58:53.263Z,98132.34
2019-01-28T00:59:57.409Z,98144.06
2019-01-28T01:01:01.387Z,98146.02
2019-01-28T01:02:05.383Z,98142.84
2019-01-28T01:03:09.357Z,98148.23
2019-01-28T01:04:13.579Z,98146.88
2019-01-28T01:05:17.557Z,98145.16
2019-01-28T01:06:22.066Z,98149.19
2019-01-28T01:07:26.055Z,98145.16
2019-01-28T01:08:30.305Z,98143.13
2019-01-28T01:09:34.279Z,98146.69
2019-01-28T01:10:38.434Z,98143.70
2019-01-28T01:11:42.913Z,98148.13
2019-01-28T01:12:46.903Z,98145.27
2019-01-28T01:13:51.135Z,98137.95
2019-01-28T01:14:55.216Z,98144.91
2019-01-28T01:15:59.235Z,98141.05
2019-01-28T01:17:03.261Z,98140.98
2019-01-28T01:18:07.700Z,98146.84
2019-01-28T01:19:11.724Z,98146.16
2019-01-28T01:20:16.499Z,98154.55
2019-01-28T01:21:20.825Z,98148.77
2019-01-28T01:22:25.184Z,98145.91
2019-01-28T01:23:29.439Z,98148.61
2019-01-28T01:24:33.664Z,98151.77
2019-01-28T01:25:37.652Z,98147.73
2019-01-28T01:26:41.635Z,98148.95
2019-01-28T01:27:45.872Z,98152.03
2019-01-28T01:28:50.250Z,98149.64
2019-01-28T01:29:54.267Z,98158.39
2019-01-28T01:30:58.360Z,98153.57
2019-01-28T01:32:02.342Z,98156.27
2019-01-28T01:33:06.679Z,98157.99
2019-01-28T01:34:11.004Z,98161.55
2019-01-28T01:35:15.294Z,98160.59
2019-01-28T01:36:19.342Z,98161.81
2019-01-28T01:37:23.604Z,98166.63
2019-01-28T01:38:27.675Z,98161.23
2019-01-28T01:39:31.584Z,98162.97
2019-01-28T01:40:35.916Z,98161.63
2019-01-28T01:41:40.431Z,98160.57
2019-01-28T01:42:44.410Z,98159.48
2019-01-28T01:43:49.059Z,98157.56
2019-01-28T01:44:53.555Z,98161.90
2019-01-28T01:45:57.538Z,98162.38
2019-01-28T01:47:01.530Z,98150.66
2019-01-28T01:48:05.639Z,98160.24
2019-01-28T01:49:09.968Z,98161.68
2019-01-28T01:50:14.799Z,98158.51
2019-01-28T01:51:19.099Z,98165.05
2019-01-28T01:52:23.611Z,98172.26
2019-01-28T01:53:27.919Z,98157.94
2019-01-28T01:54:32.110Z,98162.27
2019-01-28T01:55:36.435Z,98167.55
2019-01-28T01:56:40.762Z,98172.64
2019-01-28T01:57:44.740Z,98171.78
2019-01-28T01:58:48.725Z,98166.78
2019-01-28T01:59:52.928Z,98163.70
2019-01-28T02:00:57.259Z,98166.01
2019-01-28T02:02:01.570Z,98155.72
2019-01-28T02:03:05.787Z,98155.63
2019-01-28T02:04:09.856Z,98157.84
2019-01-28T02:05:13.930Z,98152.94
2019-01-28T02:06:18.157Z,98154.95
2019-01-28T02:07:22.127Z,98148.73
2019-01-28T02:08:26.599Z,98148.73
2019-01-28T02:09:31.102Z,98154.47
2019-01-28T02:10:35.315Z,98152.64
2019-01-28T02:11:39.291Z,98156.68
2019-01-28T02:12:43.268Z,98156.59
2019-01-28T02:13:47.238Z,98156.20
2019-01-28T02:14:51.223Z,98159.77
2019-01-28T02:15:55.438Z,98158.41
2019-01-28T02:16:59.666Z,98149.95
2019-01-28T02:18:03.893Z,98150.34
2019-01-28T02:19:07.937Z,98153.61
2019-01-28T02:20:12.295Z,98153.98
2019-01-28T02:21:18.019Z,98161.20
2019-01-28T02:22:21.916Z,98150.82
2019-01-28T02:23:25.888Z,98150.82
2019-01-28T02:24:29.854Z,98152.55
2019-01-28T02:25:34.086Z,98150.44
2019-01-28T02:26:38.058Z,98157.55
2019-01-28T02:27:42.131Z,98151.78
2019-01-28T02:28:46.600Z,98150.82
2019-01-28T02:29:50.614Z,98145.82
2019-01-28T02:30:54.841Z,98148.89
2019-01-28T02:31:58.889Z,98145.73
2019-01-28T02:33:02.807Z,98143.52
2019-01-28T02:34:06.780Z,98138.70
2019-01-28T02:35:10.932Z,98145.53
2019-01-28T02:36:15.153Z,98138.31
2019-01-28T02:37:19.430Z,98138.80
2019-01-28T02:38:24.085Z,98142.96
2019-01-28T02:39:28.358Z,98149.70
2019-01-28T02:40:32.273Z,98141.80
2019-01-28T02:41:36.183Z,98145.45
2019-01-28T02:42:40.190Z,98150.17
2019-01-28T02:43:44.359Z,98147.67
2019-01-28T02:44:48.687Z,98148.05
2019-01-28T02:45:53.084Z,98142.38
2019-01-28T02:46:57.386Z,98144.11
2019-01-28T02:48:01.373Z,98149.97
2019-01-28T02:49:05.455Z,98147.77
2019-01-28T02:50:12.672Z,98150.45
2019-01-28T02:51:16.584Z,98145.16
2019-01-28T02:52:20.872Z,98142.98
2019-01-28T02:53:25.183Z,98142.86
2019-01-28T02:54:29.090Z,98127.96
2019-01-28T02:55:33.330Z,98131.83
2019-01-28T02:56:37.332Z,98136.92
2019-01-28T02:57:41.316Z,98131.54
2019-01-28T02:58:45.302Z,98130.10
2019-01-28T02:59:49.274Z,98127.41
2019-01-28T03:00:53.259Z,98129.62
2019-01-28T03:01:59.154Z,98122.89
2019-01-28T03:03:03.409Z,98126.45
2019-01-28T03:04:07.878Z,98123.16
2019-01-28T03:05:12.202Z,98128.75
2019-01-28T03:06:16.190Z,98116.26
2019-01-28T03:07:20.184Z,98109.53
2019-01-28T03:08:24.162Z,98115.08
2019-01-28T03:09:28.319Z,98114.20
2019-01-28T03:10:32.538Z,98112.13
2019-01-28T03:11:36.525Z,98104.72
2019-01-28T03:12:40.746Z,98106.64
2019-01-28T03:13:44.892Z,98106.16
2019-01-28T03:14:49.362Z,98106.06
2019-01-28T03:15:53.333Z,98105.68
2019-01-28T03:17:08.572Z,98107.63
2019-01-28T03:18:12.794Z,98107.34
2019-01-28T03:19:16.766Z,98108.39
2019-01-28T03:20:20.905Z,98108.88
2019-01-28T03:21:24.886Z,98106.66
2019-01-28T03:22:30.283Z,98111.47
2019-01-28T03:23:34.243Z,98111.78
2019-01-28T03:24:38.468Z,98107.84
2019-01-28T03:25:42.440Z,98101.78
2019-01-28T03:26:46.440Z,98103.22
2019-01-28T03:27:50.666Z,98107.64
2019-01-28T03:28:54.945Z,98105.56
2019-01-28T03:29:59.147Z,98108.25
2019-01-28T03:31:03.143Z,98102.86
2019-01-28T03:32:07.360Z,98103.34
2019-01-28T03:33:11.428Z,98106.13
2019-01-28T03:34:15.391Z,98103.53
2019-01-28T03:35:19.741Z,98100.06
2019-01-28T03:36:23.720Z,98110.73
2019-01-28T03:37:27.964Z,98099.30
2019-01-28T03:38:32.109Z,98107.66
2019-01-28T03:39:36.623Z,98107.36
2019-01-28T03:40:40.839Z,98108.84
2019-01-28T03:41:45.062Z,98102.50
2019-01-28T03:42:50.063Z,98108.23
2019-01-28T03:43:54.636Z,98107.97
2019-01-28T03:44:58.855Z,98102.11
2019-01-28T03:46:03.074Z,98105.28
2019-01-28T03:47:07.069Z,98102.84
2019-01-28T03:48:11.291Z,98111.40
2019-01-28T03:49:15.691Z,98097.47
2019-01-28T03:50:20.020Z,98109.22
2019-01-28T03:51:24.499Z,98104.10
2019-01-28T03:52:28.811Z,98102.76
2019-01-28T03:53:33.031Z,98108.62
2019-01-28T03:54:37.007Z,98111.30
2019-01-28T03:55:40.979Z,98095.84
2019-01-28T03:56:44.952Z,98102.66
2019-01-28T03:57:48.941Z,98098.81
2019-01-28T03:58:52.916Z,98106.88
2019-01-28T03:59:56.887Z,98099.20
2019-01-28T04:01:01.106Z,98100.16
2019-01-28T04:02:05.379Z,98099.68
2019-01-28T04:03:09.674Z,98096.52
2019-01-28T04:04:13.879Z,98096.90
2019-01-28T04:05:17.964Z,98100.94
2019-01-28T04:06:22.182Z,98095.07
2019-01-28T04:07:26.150Z,98093.73
2019-01-28T04:08:30.148Z,98094.50
2019-01-28T04:09:34.130Z,98089.98
2019-01-28T04:10:38.122Z,98098.83
2019-01-28T04:11:42.743Z,98094.41
2019-01-28T04:12:46.866Z,98088.64
2019-01-28T04:13:51.463Z,98091.81
2019-01-28T04:14:55.780Z,98088.83
2019-01-28T04:16:00.283Z,98093.25
2019-01-28T04:17:04.592Z,98097.28
2019-01-28T04:18:08.917Z,98096.33
2019-01-28T04:19:13.248Z,98094.59
2019-01-28T04:20:17.623Z,98092.58
2019-01-28T04:21:21.926Z,98092.38
2019-01-28T04:22:25.763Z,98092.56
2019-01-28T04:23:30.343Z,98091.73
2019-01-28T04:24:34.326Z,98094.30
2019-01-28T04:25:38.312Z,98089.30
2019-01-28T04:26:42.224Z,98097.86
2019-01-28T04:27:46.855Z,98092.48
2019-01-28T04:28:51.468Z,98083.66
2019-01-28T04:29:55.725Z,98091.83
2019-01-28T04:30:59.980Z,98082.89
2019-01-28T04:32:04.710Z,98095.95
2019-01-28T04:33:08.618Z,98088.46
2019-01-28T04:34:12.664Z,98087.11
2019-01-28T04:35:17.075Z,98088.07
2019-01-28T04:36:21.325Z,98093.45
2019-01-28T04:37:25.651Z,98088.16
2019-01-28T04:38:29.560Z,98093.19
2019-01-28T04:39:34.026Z,98085.22
2019-01-28T04:40:38.288Z,98083.48
2019-01-28T04:41:42.266Z,98087.42
2019-01-28T04:42:46.247Z,98084.44
2019-01-28T04:43:50.777Z,98083.58
2019-01-28T04:44:54.962Z,98081.75
2019-01-28T04:45:59.395Z,98082.05
2019-01-28T04:47:03.379Z,98073.88
2019-01-28T04:48:07.363Z,98071.28
2019-01-28T04:49:11.717Z,98075.97
2019-01-28T04:50:17.330Z,98078.75
2019-01-28T04:51:21.764Z,98078.75
2019-01-28T04:52:25.656Z,98087.69
2019-01-28T04:53:29.627Z,98078.40
2019-01-28T04:54:33.786Z,98074.72
2019-01-28T04:55:37.947Z,98078.75
2019-01-28T04:56:42.013Z,98078.88
2019-01-28T04:57:46.192Z,98081.18
2019-01-28T04:58:50.164Z,98079.45
2019-01-28T04:59:54.008Z,98074.55
2019-01-28T05:00:58.221Z,98083.30
2019-01-28T05:02:02.449Z,98078.97
2019-01-28T05:03:06.945Z,98083.00
2019-01-28T05:04:11.089Z,98077.23
2019-01-28T05:05:15.623Z,98077.53
2019-01-28T05:06:19.939Z,98082.44
2019-01-28T05:07:24.085Z,98082.30
2019-01-28T05:08:28.720Z,98074.23
2019-01-28T05:09:32.647Z,98079.05
2019-01-28T05:10:36.939Z,98074.53
2019-01-28T05:11:40.924Z,98078.47
2019-01-28T05:12:45.043Z,98079.43
2019-01-28T05:13:49.343Z,98077.99
2019-01-28T05:14:53.429Z,98074.34
2019-01-28T05:15:57.416Z,98077.12
2019-01-28T05:17:01.421Z,98073.57
2019-01-28T05:18:05.759Z,98074.63
2019-01-28T05:19:09.740Z,98078.75
2019-01-28T05:20:15.196Z,98080.96
2019-01-28T05:21:19.187Z,98081.83
2019-01-28T05:22:23.415Z,98076.45
2019-01-28T05:23:28.012Z,98078.88
2019-01-28T05:24:32.315Z,98079.45
2019-01-28T05:25:36.622Z,98073.30
2019-01-28T05:26:40.677Z,98079.45
2019-01-28T05:27:44.957Z,98078.10
2019-01-28T05:28:49.249Z,98077.91
2019-01-28T05:29:53.455Z,98079.84
2019-01-28T05:30:57.688Z,98071.78
2019-01-28T05:32:01.962Z,98085.23
2019-01-28T05:33:06.370Z,98070.63
2019-01-28T05:34:10.779Z,98072.83
2019-01-28T05:35:16.021Z,98074.27
2019-01-28T05:36:20.219Z,98070.05
2019-01-28T05:37:24.936Z,98070.53
2019-01-28T05:38:28.849Z,98068.23
2019-01-28T05:39:33.140Z,98064.28
2019-01-28T05:40:37.223Z,98062.75
2019-01-28T05:41:41.656Z,98059.68
2019-01-28T05:42:45.645Z,98072.27
2019-01-28T05:43:49.691Z,98057.95
2019-01-28T05:44:53.618Z,98070.82
2019-01-28T05:45:57.967Z,98063.59
2019-01-28T05:47:02.172Z,98060.06
2019-01-28T05:48:06.911Z,98061.77
2019-01-28T05:49:10.891Z,98060.80
2019-01-28T05:50:15.953Z,98066.56
2019-01-28T05:51:19.937Z,98067.16
2019-01-28T05:52:23.921Z,98067.73
2019-01-28T05:53:28.149Z,98067.82
2019-01-28T05:54:32.136Z,98061.58
2019-01-28T05:55:36.331Z,98062.53
2019-01-28T05:56:40.470Z,98069.27
2019-01-28T05:57:44.752Z,98063.02
2019-01-28T05:58:48.689Z,98058.98
2019-01-28T05:59:52.950Z,98066.19
2019-01-28T06:00:56.994Z,98067.14
2019-01-28T06:02:01.300Z,98060.71
2019-01-28T06:03:05.567Z,98063.88
2019-01-28T06:04:09.877Z,98066.19
2019-01-28T06:05:14.236Z,98067.14
2019-01-28T06:06:18.495Z,98059.46
2019-01-28T06:07:22.695Z,98067.53
2019-01-28T06:08:26.683Z,98067.91
2019-01-28T06:09:30.620Z,98062.15
2019-01-28T06:10:34.903Z,98067.91
2019-01-28T06:11:38.891Z,98068.01
2019-01-28T06:12:42.971Z,98062.15
2019-01-28T06:13:47.114Z,98065.23
2019-01-28T06:14:51.086Z,98067.05
2019-01-28T06:15:55.344Z,98067.53
2019-01-28T06:16:59.579Z,98070.22
2019-01-28T06:18:03.799Z,98071.95
2019-01-28T06:19:08.022Z,98064.84
2019-01-28T06:20:15.839Z,98061.19
2019-01-28T06:21:19.752Z,98069.17
2019-01-28T06:22:23.651Z,98059.84
2019-01-28T06:23:27.623Z,98058.50
2019-01-28T06:24:31.812Z,98057.16
2019-01-28T06:25:36.040Z,98058.50
2019-01-28T06:26:40.279Z,98059.46
2019-01-28T06:27:44.259Z,98059.94
2019-01-28T06:28:48.481Z,98053.70
2019-01-28T06:29:53.206Z,98056.38
2019-01-28T06:30:57.111Z,98053.70
2019-01-28T06:32:01.343Z,98051.48
2019-01-28T06:33:05.396Z,98046.62
2019-01-28T06:34:09.399Z,98057.73
2019-01-28T06:35:13.480Z,98050.44
2019-01-28T06:36:18.215Z,98052.55
2019-01-28T06:37:22.720Z,98053.42
2019-01-28T06:38:27.198Z,98047.55
2019-01-28T06:39:31.423Z,98043.52
2019-01-28T06:40:35.959Z,98045.13
2019-01-28T06:41:40.431Z,98050.03
2019-01-28T06:42:44.492Z,98048.33
2019-01-28T06:43:48.922Z,98049.06
2019-01-28T06:44:53.133Z,98054.45
2019-01-28T06:45:57.354Z,98053.10
2019-01-28T06:47:01.339Z,98061.65
2019-01-28T06:48:05.319Z,98059.34
2019-01-28T06:49:09.627Z,98059.83
2019-01-28T06:50:15.262Z,98058.09
2019-01-28T06:51:19.443Z,98061.27
2019-01-28T06:52:23.739Z,98057.74
2019-01-28T06:53:27.852Z,98055.53
2019-01-28T06:54:32.147Z,98060.23
2019-01-28T06:55:36.549Z,98062.06
2019-01-28T06:56:40.685Z,98056.77
2019-01-28T06:57:45.205Z,98053.70
2019-01-28T06:58:49.892Z,98056.86
2019-01-28T06:59:54.508Z,98058.33
2019-01-28T07:00:58.935Z,98061.20
2019-01-28T07:02:02.985Z,98065.08
2019-01-28T07:03:08.073Z,98057.58
2019-01-28T07:04:12.455Z,98061.22
2019-01-28T07:05:16.540Z,98067.55
2019-01-28T07:06:20.522Z,98060.84
2019-01-28T07:07:26.213Z,98064.00
2019-01-28T07:08:30.610Z,98060.06
2019-01-28T07:09:34.922Z,98064.00
2019-01-28T07:10:39.231Z,98063.05
2019-01-28T07:11:43.819Z,98067.08
2019-01-28T07:12:48.034Z,98060.65
2019-01-28T07:13:52.693Z,98059.70
2019-01-28T07:14:56.963Z,98059.95
2019-01-28T07:16:02.109Z,98060.91
2019-01-28T07:17:06.107Z,98062.73
2019-01-28T07:18:10.479Z,98051.02
2019-01-28T07:19:16.841Z,98055.44
2019-01-28T07:20:23.225Z,98061.69
2019-01-28T07:21:27.185Z,98049.42
2019-01-28T07:22:31.195Z,98061.03
2019-01-28T07:23:35.234Z,98054.89
2019-01-28T07:24:39.466Z,98061.22
2019-01-28T07:25:44.027Z,98057.96
2019-01-28T07:26:48.002Z,98061.78
2019-01-28T07:27:51.994Z,98057.36
2019-01-28T07:28:56.375Z,98055.05
2019-01-28T07:30:00.463Z,98054.48
2019-01-28T07:31:04.767Z,98044.98
2019-01-28T07:32:08.824Z,98053.70
2019-01-28T07:33:13.011Z,98053.91
2019-01-28T07:34:17.006Z,98052.84
2019-01-28T07:35:20.983Z,98046.73
2019-01-28T07:36:24.892Z,98052.97
2019-01-28T07:37:29.370Z,98051.24
2019-01-28T07:38:33.280Z,98053.33
2019-01-28T07:39:37.255Z,98056.41
2019-01-28T07:40:41.627Z,98057.36
2019-01-28T07:41:45.606Z,98052.97
2019-01-28T07:42:49.828Z,98057.48
2019-01-28T07:43:54.010Z,98059.31
2019-01-28T07:44:58.324Z,98051.24
2019-01-28T07:46:02.300Z,98052.36
2019-01-28T07:47:06.663Z,98063.13
2019-01-28T07:48:10.646Z,98054.01
2019-01-28T07:49:14.766Z,98056.70
2019-01-28T07:50:19.065Z,98064.67
2019-01-28T07:51:23.366Z,98065.53
2019-01-28T07:52:27.451Z,98061.11
2019-01-28T07:53:31.911Z,98061.20
2019-01-28T07:54:36.114Z,98063.13
2019-01-28T07:55:40.159Z,98058.34
2019-01-28T07:56:44.350Z,98059.70
2019-01-28T07:57:48.680Z,98050.85
2019-01-28T07:58:53.091Z,98053.93
2019-01-28T07:59:57.707Z,98054.98
2019-01-28T08:01:01.707Z,98053.55
2019-01-28T08:02:05.969Z,98057.84
2019-01-28T08:03:10.227Z,98063.73
2019-01-28T08:04:14.244Z,98068.72
2019-01-28T08:05:19.002Z,98058.22
2019-01-28T08:06:22.967Z,98055.66
2019-01-28T08:07:27.351Z,98052.36
2019-01-28T08:08:31.661Z,98042.00
2019-01-28T08:09:35.783Z,98051.02
2019-01-28T08:10:40.028Z,98058.52
2019-01-28T08:11:45.820Z,98047.86
2019-01-28T08:12:50.199Z,98058.13
2019-01-28T08:13:54.543Z,98056.79
2019-01-28T08:14:58.831Z,98054.58
2019-01-28T08:16:03.166Z,98057.74
2019-01-28T08:17:07.469Z,98056.79
2019-01-28T08:18:11.766Z,98057.17
2019-01-28T08:19:16.382Z,98060.64
2019-01-28T08:20:20.859Z,98058.81
2019-01-28T08:21:25.171Z,98057.47
2019-01-28T08:22:29.269Z,98045.05
2019-01-28T08:23:33.599Z,98052.55
2019-01-28T08:24:37.562Z,98022.40
2019-01-28T08:25:41.504Z,98045.92
2019-01-28T08:26:45.743Z,98050.91
2019-01-28T08:27:49.782Z,98048.61
2019-01-28T08:28:54.386Z,98046.78
2019-01-28T08:29:58.764Z,98042.27
2019-01-28T08:31:03.052Z,98049.86
2019-01-28T08:32:07.360Z,98055.05
2019-01-28T08:33:11.773Z,98049.29
2019-01-28T08:34:16.392Z,98039.39
2019-01-28T08:35:20.619Z,98041.22
2019-01-28T08:36:24.938Z,98034.02
2019-01-28T08:37:29.046Z,98035.36
2019-01-28T08:38:33.414Z,98035.71
2019-01-28T08:39:37.724Z,98044.30
2019-01-28T08:40:42.447Z,98040.04
2019-01-28T08:41:46.853Z,98050.41
2019-01-28T08:42:50.907Z,98044.08
2019-01-28T08:43:54.909Z,98048.68
2019-01-28T08:45:00.424Z,98038.70
2019-01-28T08:46:04.836Z,98045.72
2019-01-28T08:47:09.199Z,98045.02
2019-01-28T08:48:18.205Z,98053.69
2019-01-28T08:49:19.271Z,98021.72
2019-01-28T08:50:24.080Z,98041.75
2019-01-28T08:51:28.148Z,98039.92
2019-01-28T08:52:32.539Z,98039.83
2019-01-28T08:53:37.220Z,98033.87
2019-01-28T08:54:41.446Z,98049.41
2019-01-28T08:55:46.012Z,98044.70
2019-01-28T08:56:50.015Z,98038.84
2019-01-28T08:57:54.262Z,98041.05
2019-01-28T08:58:58.753Z,98038.36
2019-01-28T09:00:03.249Z,98037.98
2019-01-28T09:01:07.336Z,98037.78
2019-01-28T09:02:11.547Z,98031.06
2019-01-28T09:03:15.518Z,98037.66
2019-01-28T09:04:19.747Z,98042.47
2019-01-28T09:05:23.745Z,98044.03
2019-01-28T09:06:28.240Z,98035.83
2019-01-28T09:07:32.487Z,98045.06
2019-01-28T09:08:36.486Z,98035.06
2019-01-28T09:09:40.715Z,98041.50
2019-01-28T09:10:45.044Z,98047.84
2019-01-28T09:11:49.159Z,98047.75
2019-01-28T09:12:53.247Z,98044.10
2019-01-28T09:13:57.227Z,98041.02
2019-01-28T09:15:02.971Z,98045.64
2019-01-28T09:16:07.272Z,98045.54
2019-01-28T09:17:11.581Z,98042.66
2019-01-28T09:18:16.050Z,98050.73
2019-01-28T09:19:20.706Z,98044.48
2019-01-28T09:20:24.918Z,98045.89
2019-01-28T09:21:28.924Z,98043.78
2019-01-28T09:22:33.378Z,98051.28
2019-01-28T09:23:37.631Z,98048.49
2019-01-28T09:24:41.770Z,98043.02
2019-01-28T09:25:46.041Z,98047.30
2019-01-28T09:26:50.772Z,98046.80
2019-01-28T09:27:55.523Z,98051.13
2019-01-28T09:28:59.503Z,98054.87
2019-01-28T09:30:03.991Z,98049.61
2019-01-28T09:31:08.083Z,98047.56
2019-01-28T09:32:12.409Z,98045.35
2019-01-28T09:33:16.353Z,98046.31
2019-01-28T09:34:20.672Z,98053.52
2019-01-28T09:35:24.844Z,98047.66
2019-01-28T09:36:28.885Z,98053.81
2019-01-28T09:37:33.124Z,98058.23
2019-01-28T09:38:37.214Z,98050.16
2019-01-28T09:39:41.179Z,98051.98
2019-01-28T09:40:45.743Z,98054.48
2019-01-28T09:41:49.658Z,98049.58
2019-01-28T09:42:53.659Z,98056.70
2019-01-28T09:43:57.700Z,98051.47
2019-01-28T09:45:02.073Z,98059.64
2019-01-28T09:46:06.131Z,98059.25
2019-01-28T09:47:10.465Z,98059.00
2019-01-28T09:48:15.985Z,98068.42
2019-01-28T09:49:20.408Z,98060.73
2019-01-28T09:50:24.951Z,98065.83
2019-01-28T09:51:29.359Z,98065.25
2019-01-28T09:52:33.373Z,98065.92
2019-01-28T09:53:37.644Z,98067.27
2019-01-28T09:54:43.584Z,98075.06
2019-01-28T09:55:47.709Z,98074.32
2019-01-28T09:56:52.042Z,98071.25
2019-01-28T09:57:56.257Z,98076.34
2019-01-28T09:59:00.258Z,98072.30
2019-01-28T10:00:07.188Z,98078.00
2019-01-28T10:01:11.533Z,98074.54
2019-01-28T10:02:15.813Z,98076.08
2019-01-28T10:03:20.310Z,98076.08
2019-01-28T10:04:24.615Z,98072.04
2019-01-28T10:05:29.334Z,98073.29
2019-01-28T10:06:34.212Z,98082.23
2019-01-28T10:07:38.198Z,98071.56
2019-01-28T10:08:43.408Z,98070.13
2019-01-28T10:09:47.392Z,98076.66
2019-01-28T10:10:51.376Z,98078.73
2019-01-28T10:11:55.699Z,98078.96
2019-01-28T10:12:59.968Z,98075.31
2019-01-28T10:14:04.410Z,98073.20
2019-01-28T10:15:11.151Z,98071.94
2019-01-28T10:16:15.232Z,98068.39
2019-01-28T10:17:19.487Z,98084.05
2019-01-28T10:18:23.593Z,98080.88
2019-01-28T10:19:28.003Z,98079.38
2019-01-28T10:20:34.610Z,98076.30
2019-01-28T10:21:39.779Z,98081.69
2019-01-28T10:22:44.009Z,98077.52
2019-01-28T10:23:48.006Z,98074.95
2019-01-28T10:24:52.336Z,98075.91
2019-01-28T10:25:57.876Z,98075.91
2019-01-28T10:27:01.831Z,98067.36
2019-01-28T10:28:05.815Z,98065.53
2019-01-28T10:29:09.929Z,98077.64
2019-01-28T10:30:17.972Z,98071.40
2019-01-28T10:31:22.635Z,98067.06
2019-01-28T10:32:26.859Z,98067.26
2019-01-28T10:33:31.479Z,98070.55
2019-01-28T10:34:35.743Z,98079.20
2019-01-28T10:35:41.371Z,98083.41
2019-01-28T10:36:46.153Z,98069.78
2019-01-28T10:37:50.272Z,98078.15
2019-01-28T10:38:54.260Z,98078.15
2019-01-28T10:39:58.669Z,98063.34
2019-01-28T10:41:02.715Z,98077.38
2019-01-28T10:42:09.855Z,98066.61
2019-01-28T10:43:13.452Z,98070.36
2019-01-28T10:44:17.562Z,98066.32
2019-01-28T10:45:22.148Z,98074.10
2019-01-28T10:46:26.131Z,98060.30
2019-01-28T10:47:30.116Z,98071.31
2019-01-28T10:48:34.318Z,98073.63
2019-01-28T10:49:38.879Z,98073.63
2019-01-28T10:50:44.199Z,98067.89
2019-01-28T10:51:48.873Z,98070.67
2019-01-28T10:52:53.027Z,98078.27
2019-01-28T10:53:57.431Z,98063.66
2019-01-28T10:55:01.755Z,98074.90
2019-01-28T10:56:06.603Z,98075.28
2019-01-28T10:57:11.083Z,98078.06
2019-01-28T10:58:15.076Z,98079.98
2019-01-28T10:59:19.626Z,98075.95
2019-01-28T11:00:43.958Z,98075.59
2019-01-28T11:01:48.473Z,98085.75
2019-01-28T11:02:53.230Z,98081.33
2019-01-28T11:03:57.558Z,98079.41
2019-01-28T11:05:01.794Z,98067.69
2019-01-28T11:06:06.249Z,98071.27
2019-01-28T11:07:10.470Z,98078.09
2019-01-28T11:08:14.451Z,98080.48
2019-01-28T11:09:18.837Z,98084.64
2019-01-28T11:10:22.988Z,98089.16
2019-01-28T11:11:27.404Z,98071.67
2019-01-28T11:12:32.673Z,98079.43
2019-01-28T11:13:36.898Z,98070.97
2019-01-28T11:14:40.813Z,98079.81
2019-01-28T11:15:44.838Z,98084.81
2019-01-28T11:16:49.381Z,98074.23
2019-01-28T11:17:53.890Z,98078.88
2019-01-28T11:18:58.211Z,98089.63
2019-01-28T11:20:02.301Z,98087.91
2019-01-28T11:21:06.821Z,98085.12
2019-01-28T11:22:10.904Z,98082.52
2019-01-28T11:23:15.375Z,98082.52
2019-01-28T11:24:20.214Z,98078.40
2019-01-28T11:25:26.481Z,98080.41
2019-01-28T11:26:31.112Z,98085.01
2019-01-28T11:27:35.489Z,98079.24
2019-01-28T11:28:40.086Z,98084.36
2019-01-28T11:29:44.089Z,98079.17
2019-01-28T11:30:53.307Z,98088.19
2019-01-28T11:31:57.551Z,98086.46
2019-01-28T11:33:02.200Z,98082.04
2019-01-28T11:34:06.442Z,98091.75
2019-01-28T11:35:10.429Z,98089.05
2019-01-28T11:36:14.695Z,98087.72
2019-01-28T11:37:18.725Z,98090.02
2019-01-28T11:38:22.843Z,98094.83
2019-01-28T11:39:26.974Z,98097.20
2019-01-28T11:40:31.300Z,98095.78
2019-01-28T11:41:35.662Z,98103.55
2019-01-28T11:42:40.295Z,98099.64
2019-01-28T11:43:44.636Z,98099.83
2019-01-28T11:44:48.922Z,98096.66
2019-01-28T11:45:55.768Z,98094.27
2019-01-28T11:47:00.089Z,98100.21
2019-01-28T11:48:04.293Z,98102.52
2019-01-28T11:49:08.581Z,98097.61
2019-01-28T11:50:13.212Z,98103.29
2019-01-28T11:51:17.561Z,98105.89
2019-01-28T11:52:21.602Z,98103.77
2019-01-28T11:53:25.582Z,98108.09
2019-01-28T11:54:29.837Z,98109.05
2019-01-28T11:55:35.282Z,98103.47
2019-01-28T11:56:39.374Z,98108.66
2019-01-28T11:57:43.559Z,98103.55
2019-01-28T11:58:47.928Z,98105.11
2019-01-28T11:59:51.942Z,98103.86
2019-01-28T12:01:04.942Z,98106.94
2019-01-28T12:02:08.938Z,98119.42
2019-01-28T12:03:13.291Z,98116.73
2019-01-28T12:04:19.160Z,98114.44
2019-01-28T12:05:23.487Z,98111.27
2019-01-28T12:06:27.829Z,98109.80
2019-01-28T12:07:32.079Z,98114.61
2019-01-28T12:08:36.414Z,98114.99
2019-01-28T12:09:40.675Z,98121.05
2019-01-28T12:10:45.008Z,98115.77
2019-01-28T12:11:49.012Z,98117.89
2019-01-28T12:12:53.706Z,98123.05
2019-01-28T12:13:58.288Z,98117.28
2019-01-28T12:15:02.279Z,98121.70
2019-01-28T12:16:06.934Z,98119.02
2019-01-28T12:17:11.242Z,98125.74
2019-01-28T12:18:15.859Z,98129.39
2019-01-28T12:19:21.623Z,98123.53
2019-01-28T12:20:25.629Z,98129.77
2019-01-28T12:21:29.607Z,98129.77
2019-01-28T12:22:33.912Z,98123.05
2019-01-28T12:23:37.899Z,98122.28
2019-01-28T12:24:42.241Z,98125.74
2019-01-28T12:25:46.228Z,98127.86
2019-01-28T12:26:50.557Z,98125.17
2019-01-28T12:27:54.623Z,98119.96
2019-01-28T12:28:58.606Z,98123.04
2019-01-28T12:30:03.573Z,98125.16
2019-01-28T12:31:07.562Z,98123.81
2019-01-28T12:32:11.544Z,98123.43
2019-01-28T12:33:15.863Z,98111.71
2019-01-28T12:34:20.138Z,98108.16
2019-01-28T12:35:24.467Z,98123.34
2019-01-28T12:36:28.694Z,98127.84